sensor_id;sensor_type;location;lat;lon;timestamp;temperature;humidity
17632;DHT22;8934;51.194;17.150;2024-02-14T00:00:11;-2.10;99.90
17632;DHT22;8934;51.194;17.150;2024-02-14T00:03:03;-2.00;99.90
17632;DHT22;8934;51.194;17.150;2024-02-14T00:05:52;-2.00;99.90
17632;DHT22;8934;51.194;17.150;2024-02-14T00:08:42;-1.90;99.90
17632;DHT22;8934;51.194;17.150;2024-02-14T00:11:29;-1.80;99.90
17632;DHT22;8934;51.194;17.150;2024-02-14T00:14:18;-1.80;99.90
17632;DHT22;8934;51.194;17.150;2024-02-14T00:17:06;-1.80;99.90
17632;DHT22;8934;51.194;17.150;2024-02-14T00:19:53;-1.70;99.90
17632;DHT22;8934;51.194;17.150;2024-02-14T00:22:43;-1.70;99.90
17632;DHT22;8934;51.194;17.150;2024-02-14T00:25:30;-1.60;99.90
17632;DHT22;8934;51.194;17.150;2024-02-14T00:28:18;-1.60;99.90
17632;DHT22;8934;51.194;17.150;2024-02-14T00:31:05;-1.50;99.90
17632;DHT22;8934;51.194;17.150;2024-02-14T00:33:53;-1.50;99.90
17632;DHT22;8934;51.194;17.150;2024-02-14T00:36:41;-1.50;99.90
17632;DHT22;8934;51.194;17.150;2024-02-14T00:39:29;-1.50;99.90
17632;DHT22;8934;51.194;17.150;2024-02-14T00:42:17;-1.50;99.90
17632;DHT22;8934;51.194;17.150;2024-02-14T00:45:05;-1.50;99.90
17632;DHT22;8934;51.194;17.150;2024-02-14T00:47:55;-1.50;99.90
17632;DHT22;8934;51.194;17.150;2024-02-14T00:50:42;-1.50;99.90
17632;DHT22;8934;51.194;17.150;2024-02-14T00:53:30;-1.50;99.90
17632;DHT22;8934;51.194;17.150;2024-02-14T00:56:18;-1.50;99.90
17632;DHT22;8934;51.194;17.150;2024-02-14T00:59:06;-1.50;99.90
17632;DHT22;8934;51.194;17.150;2024-02-14T01:01:53;-1.50;99.90
17632;DHT22;8934;51.194;17.150;2024-02-14T01:04:41;-1.50;99.90
17632;DHT22;8934;51.194;17.150;2024-02-14T01:07:28;-1.50;99.90
17632;DHT22;8934;51.194;17.150;2024-02-14T01:10:16;-1.50;99.90
17632;DHT22;8934;51.194;17.150;2024-02-14T01:13:06;-1.40;99.90
17632;DHT22;8934;51.194;17.150;2024-02-14T01:15:53;-1.30;99.90
17632;DHT22;8934;51.194;17.150;2024-02-14T01:18:41;-1.30;99.90
17632;DHT22;8934;51.194;17.150;2024-02-14T01:21:28;-1.30;99.90
17632;DHT22;8934;51.194;17.150;2024-02-14T01:24:16;-1.30;99.90
17632;DHT22;8934;51.194;17.150;2024-02-14T01:27:04;-1.30;99.90
17632;DHT22;8934;51.194;17.150;2024-02-14T01:29:53;-1.20;99.90
17632;DHT22;8934;51.194;17.150;2024-02-14T01:32:41;-1.30;99.90
17632;DHT22;8934;51.194;17.150;2024-02-14T01:35:28;-1.20;99.90
17632;DHT22;8934;51.194;17.150;2024-02-14T01:38:16;-1.20;99.90
17632;DHT22;8934;51.194;17.150;2024-02-14T01:41:04;-1.30;99.90
17632;DHT22;8934;51.194;17.150;2024-02-14T01:43:52;-1.30;99.90
17632;DHT22;8934;51.194;17.150;2024-02-14T01:46:41;-1.30;99.90
17632;DHT22;8934;51.194;17.150;2024-02-14T01:49:29;-1.30;99.90
17632;DHT22;8934;51.194;17.150;2024-02-14T01:52:17;-1.40;99.90
17632;DHT22;8934;51.194;17.150;2024-02-14T01:55:06;-1.50;99.90
17632;DHT22;8934;51.194;17.150;2024-02-14T01:57:54;-1.60;99.90
17632;DHT22;8934;51.194;17.150;2024-02-14T02:00:41;-1.70;99.90
17632;DHT22;8934;51.194;17.150;2024-02-14T02:03:33;-1.80;99.90
17632;DHT22;8934;51.194;17.150;2024-02-14T02:06:22;-1.80;99.90
17632;DHT22;8934;51.194;17.150;2024-02-14T02:09:09;-2.00;99.90
17632;DHT22;8934;51.194;17.150;2024-02-14T02:11:57;-2.00;99.90
17632;DHT22;8934;51.194;17.150;2024-02-14T02:14:47;-2.00;99.90
17632;DHT22;8934;51.194;17.150;2024-02-14T02:17:34;-2.00;99.90
17632;DHT22;8934;51.194;17.150;2024-02-14T02:20:23;-2.10;99.90
17632;DHT22;8934;51.194;17.150;2024-02-14T02:23:13;-2.10;99.90
17632;DHT22;8934;51.194;17.150;2024-02-14T02:26:01;-2.20;99.90
17632;DHT22;8934;51.194;17.150;2024-02-14T02:28:49;-2.20;99.90
17632;DHT22;8934;51.194;17.150;2024-02-14T02:31:36;-2.30;99.90
17632;DHT22;8934;51.194;17.150;2024-02-14T02:34:24;-2.30;99.90
17632;DHT22;8934;51.194;17.150;2024-02-14T02:37:12;-2.30;99.90
17632;DHT22;8934;51.194;17.150;2024-02-14T02:40:01;-2.40;99.90
17632;DHT22;8934;51.194;17.150;2024-02-14T02:42:49;-2.40;99.90
17632;DHT22;8934;51.194;17.150;2024-02-14T02:45:37;-2.50;99.90
17632;DHT22;8934;51.194;17.150;2024-02-14T02:48:25;-2.50;99.90
17632;DHT22;8934;51.194;17.150;2024-02-14T02:51:15;-2.60;99.90
17632;DHT22;8934;51.194;17.150;2024-02-14T02:54:03;-2.60;99.90
17632;DHT22;8934;51.194;17.150;2024-02-14T02:56:51;-2.60;99.90
17632;DHT22;8934;51.194;17.150;2024-02-14T02:59:39;-2.60;99.90
17632;DHT22;8934;51.194;17.150;2024-02-14T03:02:30;-2.60;99.90
17632;DHT22;8934;51.194;17.150;2024-02-14T03:05:17;-2.50;99.90
17632;DHT22;8934;51.194;17.150;2024-02-14T03:08:06;-2.60;99.90
17632;DHT22;8934;51.194;17.150;2024-02-14T03:10:54;-2.60;99.90
17632;DHT22;8934;51.194;17.150;2024-02-14T03:13:43;-2.60;99.90
17632;DHT22;8934;51.194;17.150;2024-02-14T03:16:31;-2.60;99.90
17632;DHT22;8934;51.194;17.150;2024-02-14T03:19:18;-2.70;99.90
17632;DHT22;8934;51.194;17.150;2024-02-14T03:22:05;-2.70;99.90
17632;DHT22;8934;51.194;17.150;2024-02-14T03:24:55;-2.70;99.90
17632;DHT22;8934;51.194;17.150;2024-02-14T03:27:44;-2.80;99.90
17632;DHT22;8934;51.194;17.150;2024-02-14T03:30:35;-2.80;99.90
17632;DHT22;8934;51.194;17.150;2024-02-14T03:33:22;-2.90;99.90
17632;DHT22;8934;51.194;17.150;2024-02-14T03:36:11;-2.90;99.90
17632;DHT22;8934;51.194;17.150;2024-02-14T03:38:59;-2.90;99.90
17632;DHT22;8934;51.194;17.150;2024-02-14T03:41:50;-2.90;99.90
17632;DHT22;8934;51.194;17.150;2024-02-14T03:44:37;-2.90;99.90
17632;DHT22;8934;51.194;17.150;2024-02-14T03:47:26;-2.90;99.90
17632;DHT22;8934;51.194;17.150;2024-02-14T03:50:14;-2.90;99.90
17632;DHT22;8934;51.194;17.150;2024-02-14T03:53:02;-2.90;99.90
17632;DHT22;8934;51.194;17.150;2024-02-14T03:55:50;-2.90;99.90
17632;DHT22;8934;51.194;17.150;2024-02-14T03:58:39;-2.90;99.90
17632;DHT22;8934;51.194;17.150;2024-02-14T04:01:26;-3.00;99.90
17632;DHT22;8934;51.194;17.150;2024-02-14T04:04:15;-3.00;99.90
17632;DHT22;8934;51.194;17.150;2024-02-14T04:07:04;-3.00;99.90
17632;DHT22;8934;51.194;17.150;2024-02-14T04:09:51;-3.00;99.90
17632;DHT22;8934;51.194;17.150;2024-02-14T04:12:38;-3.00;99.90
17632;DHT22;8934;51.194;17.150;2024-02-14T04:15:26;-2.90;99.90
17632;DHT22;8934;51.194;17.150;2024-02-14T04:18:14;-2.90;99.90
17632;DHT22;8934;51.194;17.150;2024-02-14T04:21:07;-2.90;99.90
17632;DHT22;8934;51.194;17.150;2024-02-14T04:23:56;-2.80;99.90
17632;DHT22;8934;51.194;17.150;2024-02-14T04:26:44;-2.80;99.90
17632;DHT22;8934;51.194;17.150;2024-02-14T04:29:31;-2.80;99.90
17632;DHT22;8934;51.194;17.150;2024-02-14T04:32:20;-2.80;99.90
17632;DHT22;8934;51.194;17.150;2024-02-14T04:35:08;-2.80;99.90
17632;DHT22;8934;51.194;17.150;2024-02-14T04:37:57;-2.70;99.90
17632;DHT22;8934;51.194;17.150;2024-02-14T04:40:44;-2.70;99.90
17632;DHT22;8934;51.194;17.150;2024-02-14T04:43:31;-2.70;99.90
17632;DHT22;8934;51.194;17.150;2024-02-14T04:46:19;-2.70;99.90
17632;DHT22;8934;51.194;17.150;2024-02-14T04:49:08;-2.60;99.90
17632;DHT22;8934;51.194;17.150;2024-02-14T04:51:56;-2.60;99.90
17632;DHT22;8934;51.194;17.150;2024-02-14T04:54:45;-2.60;99.90
17632;DHT22;8934;51.194;17.150;2024-02-14T04:57:33;-2.60;99.90
17632;DHT22;8934;51.194;17.150;2024-02-14T05:00:23;-2.60;99.90
17632;DHT22;8934;51.194;17.150;2024-02-14T05:03:11;-2.60;99.90
17632;DHT22;8934;51.194;17.150;2024-02-14T05:05:58;-2.60;99.90
17632;DHT22;8934;51.194;17.150;2024-02-14T05:08:49;-2.70;99.90
17632;DHT22;8934;51.194;17.150;2024-02-14T05:11:38;-2.70;99.90
17632;DHT22;8934;51.194;17.150;2024-02-14T05:14:26;-2.70;99.90
17632;DHT22;8934;51.194;17.150;2024-02-14T05:17:18;-2.70;99.90
17632;DHT22;8934;51.194;17.150;2024-02-14T05:20:06;-2.80;99.90
17632;DHT22;8934;51.194;17.150;2024-02-14T05:22:55;-2.80;99.90
17632;DHT22;8934;51.194;17.150;2024-02-14T05:25:42;-2.80;99.90
17632;DHT22;8934;51.194;17.150;2024-02-14T05:28:32;-2.80;99.90
17632;DHT22;8934;51.194;17.150;2024-02-14T05:31:20;-2.80;99.90
17632;DHT22;8934;51.194;17.150;2024-02-14T05:34:08;-2.90;99.90
17632;DHT22;8934;51.194;17.150;2024-02-14T05:36:56;-2.90;99.90
17632;DHT22;8934;51.194;17.150;2024-02-14T05:39:44;-2.90;99.90
17632;DHT22;8934;51.194;17.150;2024-02-14T05:42:31;-2.90;99.90
17632;DHT22;8934;51.194;17.150;2024-02-14T05:45:21;-2.90;99.90
17632;DHT22;8934;51.194;17.150;2024-02-14T05:48:09;-2.90;99.90
17632;DHT22;8934;51.194;17.150;2024-02-14T05:50:56;-2.90;99.90
17632;DHT22;8934;51.194;17.150;2024-02-14T05:53:43;-2.90;99.90
17632;DHT22;8934;51.194;17.150;2024-02-14T05:56:31;-2.90;99.90
17632;DHT22;8934;51.194;17.150;2024-02-14T05:59:18;-2.90;99.90
17632;DHT22;8934;51.194;17.150;2024-02-14T06:02:08;-2.90;99.90
17632;DHT22;8934;51.194;17.150;2024-02-14T06:04:56;-2.80;99.90
17632;DHT22;8934;51.194;17.150;2024-02-14T06:07:43;-2.80;99.90
17632;DHT22;8934;51.194;17.150;2024-02-14T06:10:31;-2.80;99.90
17632;DHT22;8934;51.194;17.150;2024-02-14T06:13:20;-2.80;99.90
17632;DHT22;8934;51.194;17.150;2024-02-14T06:16:08;-2.80;99.90
17632;DHT22;8934;51.194;17.150;2024-02-14T06:18:59;-2.80;99.90
17632;DHT22;8934;51.194;17.150;2024-02-14T06:21:46;-2.80;99.90
17632;DHT22;8934;51.194;17.150;2024-02-14T06:24:34;-2.80;99.90
17632;DHT22;8934;51.194;17.150;2024-02-14T06:27:21;-2.80;99.90
17632;DHT22;8934;51.194;17.150;2024-02-14T06:30:09;-2.80;99.90
17632;DHT22;8934;51.194;17.150;2024-02-14T06:32:57;-2.80;99.90
17632;DHT22;8934;51.194;17.150;2024-02-14T06:35:49;-2.80;99.90
17632;DHT22;8934;51.194;17.150;2024-02-14T06:38:36;-2.80;99.90
17632;DHT22;8934;51.194;17.150;2024-02-14T06:41:24;-2.70;99.90
17632;DHT22;8934;51.194;17.150;2024-02-14T06:44:11;-2.70;99.90
17632;DHT22;8934;51.194;17.150;2024-02-14T06:46:59;-2.70;99.90
17632;DHT22;8934;51.194;17.150;2024-02-14T06:49:46;-2.60;99.90
17632;DHT22;8934;51.194;17.150;2024-02-14T06:52:35;-2.60;99.90
17632;DHT22;8934;51.194;17.150;2024-02-14T06:55:22;-2.50;99.90
17632;DHT22;8934;51.194;17.150;2024-02-14T06:58:10;-2.40;99.90
17632;DHT22;8934;51.194;17.150;2024-02-14T07:00:57;-2.30;99.90
17632;DHT22;8934;51.194;17.150;2024-02-14T07:09:22;-2.20;99.90
17632;DHT22;8934;51.194;17.150;2024-02-14T07:12:11;-1.80;99.90
17632;DHT22;8934;51.194;17.150;2024-02-14T07:14:58;-1.70;99.90
17632;DHT22;8934;51.194;17.150;2024-02-14T07:17:45;-1.50;99.90
17632;DHT22;8934;51.194;17.150;2024-02-14T07:20:33;-1.40;99.90
17632;DHT22;8934;51.194;17.150;2024-02-14T07:23:20;-1.20;99.90
17632;DHT22;8934;51.194;17.150;2024-02-14T07:26:09;-1.00;99.90
17632;DHT22;8934;51.194;17.150;2024-02-14T07:28:56;-0.90;99.90
17632;DHT22;8934;51.194;17.150;2024-02-14T07:31:44;-0.70;99.90
17632;DHT22;8934;51.194;17.150;2024-02-14T07:34:31;-0.60;99.90
17632;DHT22;8934;51.194;17.150;2024-02-14T07:37:19;-0.40;99.90
17632;DHT22;8934;51.194;17.150;2024-02-14T07:40:07;-0.20;99.90
17632;DHT22;8934;51.194;17.150;2024-02-14T07:42:56;0.10;99.90
17632;DHT22;8934;51.194;17.150;2024-02-14T07:45:43;0.30;99.90
17632;DHT22;8934;51.194;17.150;2024-02-14T07:48:31;0.50;99.90
17632;DHT22;8934;51.194;17.150;2024-02-14T07:51:19;0.70;99.90
17632;DHT22;8934;51.194;17.150;2024-02-14T07:54:07;0.90;99.90
17632;DHT22;8934;51.194;17.150;2024-02-14T07:56:54;1.10;99.90
17632;DHT22;8934;51.194;17.150;2024-02-14T07:59:43;1.20;99.90
17632;DHT22;8934;51.194;17.150;2024-02-14T08:02:30;1.30;99.90
17632;DHT22;8934;51.194;17.150;2024-02-14T08:05:18;1.50;99.90
17632;DHT22;8934;51.194;17.150;2024-02-14T08:08:05;1.60;99.90
17632;DHT22;8934;51.194;17.150;2024-02-14T08:10:53;1.70;99.90
17632;DHT22;8934;51.194;17.150;2024-02-14T08:13:41;1.90;99.90
17632;DHT22;8934;51.194;17.150;2024-02-14T08:16:30;2.10;99.90
17632;DHT22;8934;51.194;17.150;2024-02-14T08:19:18;2.20;99.90
17632;DHT22;8934;51.194;17.150;2024-02-14T08:22:05;2.30;99.90
17632;DHT22;8934;51.194;17.150;2024-02-14T08:24:54;2.50;99.90
17632;DHT22;8934;51.194;17.150;2024-02-14T08:27:41;2.60;99.90
17632;DHT22;8934;51.194;17.150;2024-02-14T08:30:29;2.80;99.90
17632;DHT22;8934;51.194;17.150;2024-02-14T08:33:18;3.00;99.90
17632;DHT22;8934;51.194;17.150;2024-02-14T08:36:07;3.20;99.90
17632;DHT22;8934;51.194;17.150;2024-02-14T08:38:54;3.40;99.90
17632;DHT22;8934;51.194;17.150;2024-02-14T08:41:44;3.60;99.90
17632;DHT22;8934;51.194;17.150;2024-02-14T08:44:33;3.70;99.90
17632;DHT22;8934;51.194;17.150;2024-02-14T08:47:20;3.90;99.90
17632;DHT22;8934;51.194;17.150;2024-02-14T08:50:09;4.00;99.90
17632;DHT22;8934;51.194;17.150;2024-02-14T08:52:57;4.20;99.90
17632;DHT22;8934;51.194;17.150;2024-02-14T08:55:44;4.40;99.90
17632;DHT22;8934;51.194;17.150;2024-02-14T08:58:31;4.70;99.90
17632;DHT22;8934;51.194;17.150;2024-02-14T09:01:21;5.00;99.90
17632;DHT22;8934;51.194;17.150;2024-02-14T09:04:09;5.30;99.90
17632;DHT22;8934;51.194;17.150;2024-02-14T09:06:57;5.50;99.90
17632;DHT22;8934;51.194;17.150;2024-02-14T09:09:45;5.80;99.90
17632;DHT22;8934;51.194;17.150;2024-02-14T09:12:32;6.00;99.90
17632;DHT22;8934;51.194;17.150;2024-02-14T09:15:20;6.30;99.90
17632;DHT22;8934;51.194;17.150;2024-02-14T09:18:08;6.60;99.90
17632;DHT22;8934;51.194;17.150;2024-02-14T09:20:55;6.80;99.90
17632;DHT22;8934;51.194;17.150;2024-02-14T09:23:44;6.90;99.90
17632;DHT22;8934;51.194;17.150;2024-02-14T09:26:32;7.00;99.90
17632;DHT22;8934;51.194;17.150;2024-02-14T09:29:19;7.00;99.90
17632;DHT22;8934;51.194;17.150;2024-02-14T09:32:07;7.10;99.90
17632;DHT22;8934;51.194;17.150;2024-02-14T09:34:54;7.30;99.90
17632;DHT22;8934;51.194;17.150;2024-02-14T09:37:43;7.40;99.90
17632;DHT22;8934;51.194;17.150;2024-02-14T09:40:32;7.40;99.90
17632;DHT22;8934;51.194;17.150;2024-02-14T09:43:24;7.40;99.90
17632;DHT22;8934;51.194;17.150;2024-02-14T09:46:13;7.50;99.90
17632;DHT22;8934;51.194;17.150;2024-02-14T09:49:02;7.50;99.90
17632;DHT22;8934;51.194;17.150;2024-02-14T09:51:51;7.60;99.90
17632;DHT22;8934;51.194;17.150;2024-02-14T09:54:39;7.60;99.90
17632;DHT22;8934;51.194;17.150;2024-02-14T09:57:29;7.70;99.90
17632;DHT22;8934;51.194;17.150;2024-02-14T10:00:16;7.80;99.90
17632;DHT22;8934;51.194;17.150;2024-02-14T10:03:05;7.90;99.90
17632;DHT22;8934;51.194;17.150;2024-02-14T10:05:53;8.00;99.90
17632;DHT22;8934;51.194;17.150;2024-02-14T10:08:40;8.00;99.90
17632;DHT22;8934;51.194;17.150;2024-02-14T10:11:43;8.20;99.90
17632;DHT22;8934;51.194;17.150;2024-02-14T10:14:33;8.30;99.90
17632;DHT22;8934;51.194;17.150;2024-02-14T10:17:21;8.40;99.90
17632;DHT22;8934;51.194;17.150;2024-02-14T10:20:10;8.50;99.90
17632;DHT22;8934;51.194;17.150;2024-02-14T10:23:01;8.60;99.90
17632;DHT22;8934;51.194;17.150;2024-02-14T10:25:50;8.80;99.90
17632;DHT22;8934;51.194;17.150;2024-02-14T10:28:41;8.90;99.90
17632;DHT22;8934;51.194;17.150;2024-02-14T10:31:32;9.00;99.90
17632;DHT22;8934;51.194;17.150;2024-02-14T10:34:25;9.10;99.90
17632;DHT22;8934;51.194;17.150;2024-02-14T10:37:14;9.20;99.90
17632;DHT22;8934;51.194;17.150;2024-02-14T10:40:03;9.20;99.90
17632;DHT22;8934;51.194;17.150;2024-02-14T10:42:51;9.10;99.90
17632;DHT22;8934;51.194;17.150;2024-02-14T10:45:40;9.10;99.90
17632;DHT22;8934;51.194;17.150;2024-02-14T10:48:31;9.20;99.90
17632;DHT22;8934;51.194;17.150;2024-02-14T10:51:23;9.40;99.90
17632;DHT22;8934;51.194;17.150;2024-02-14T10:54:13;9.50;99.90
17632;DHT22;8934;51.194;17.150;2024-02-14T10:57:06;9.50;99.90
17632;DHT22;8934;51.194;17.150;2024-02-14T10:59:59;9.60;99.90
17632;DHT22;8934;51.194;17.150;2024-02-14T11:02:48;9.70;99.90
17632;DHT22;8934;51.194;17.150;2024-02-14T11:05:44;9.90;99.90
17632;DHT22;8934;51.194;17.150;2024-02-14T11:08:32;10.00;99.90
17632;DHT22;8934;51.194;17.150;2024-02-14T11:11:21;10.10;99.90
17632;DHT22;8934;51.194;17.150;2024-02-14T11:14:10;10.20;99.90
17632;DHT22;8934;51.194;17.150;2024-02-14T11:16:59;10.50;99.90
17632;DHT22;8934;51.194;17.150;2024-02-14T11:19:47;10.70;99.90
17632;DHT22;8934;51.194;17.150;2024-02-14T11:22:36;10.80;99.90
17632;DHT22;8934;51.194;17.150;2024-02-14T11:25:28;10.80;99.90
17632;DHT22;8934;51.194;17.150;2024-02-14T11:28:24;10.80;99.90
17632;DHT22;8934;51.194;17.150;2024-02-14T11:31:16;10.90;99.90
17632;DHT22;8934;51.194;17.150;2024-02-14T11:34:05;11.00;99.90
17632;DHT22;8934;51.194;17.150;2024-02-14T11:36:55;11.00;99.90
17632;DHT22;8934;51.194;17.150;2024-02-14T11:39:46;11.10;99.90
17632;DHT22;8934;51.194;17.150;2024-02-14T11:42:33;11.20;99.90
17632;DHT22;8934;51.194;17.150;2024-02-14T11:45:21;11.60;99.90
17632;DHT22;8934;51.194;17.150;2024-02-14T11:48:09;11.80;99.90
17632;DHT22;8934;51.194;17.150;2024-02-14T11:50:57;11.80;99.90
17632;DHT22;8934;51.194;17.150;2024-02-14T11:53:45;11.60;99.90
17632;DHT22;8934;51.194;17.150;2024-02-14T11:56:36;11.50;99.90
17632;DHT22;8934;51.194;17.150;2024-02-14T11:59:24;11.40;99.90
17632;DHT22;8934;51.194;17.150;2024-02-14T12:02:11;11.30;99.90
17632;DHT22;8934;51.194;17.150;2024-02-14T12:04:59;11.20;99.90
17632;DHT22;8934;51.194;17.150;2024-02-14T12:07:49;11.10;99.90
17632;DHT22;8934;51.194;17.150;2024-02-14T12:10:37;11.10;99.90
17632;DHT22;8934;51.194;17.150;2024-02-14T12:13:26;11.20;99.90
17632;DHT22;8934;51.194;17.150;2024-02-14T12:16:13;11.20;99.90
17632;DHT22;8934;51.194;17.150;2024-02-14T12:19:06;11.20;99.90
17632;DHT22;8934;51.194;17.150;2024-02-14T12:21:56;11.10;99.90
17632;DHT22;8934;51.194;17.150;2024-02-14T12:24:47;11.00;99.90
17632;DHT22;8934;51.194;17.150;2024-02-14T12:27:35;10.90;99.90
17632;DHT22;8934;51.194;17.150;2024-02-14T12:30:35;10.80;99.90
17632;DHT22;8934;51.194;17.150;2024-02-14T12:33:29;10.70;99.90
17632;DHT22;8934;51.194;17.150;2024-02-14T12:36:19;10.60;99.90
17632;DHT22;8934;51.194;17.150;2024-02-14T12:39:06;10.40;99.90
17632;DHT22;8934;51.194;17.150;2024-02-14T12:41:55;10.30;99.90
17632;DHT22;8934;51.194;17.150;2024-02-14T12:44:43;10.30;99.90
17632;DHT22;8934;51.194;17.150;2024-02-14T12:47:31;10.40;99.90
17632;DHT22;8934;51.194;17.150;2024-02-14T12:50:21;10.50;99.90
17632;DHT22;8934;51.194;17.150;2024-02-14T12:53:08;10.70;99.90
17632;DHT22;8934;51.194;17.150;2024-02-14T12:55:56;10.90;99.90
17632;DHT22;8934;51.194;17.150;2024-02-14T12:58:44;11.00;99.90
17632;DHT22;8934;51.194;17.150;2024-02-14T13:01:32;11.30;99.90
17632;DHT22;8934;51.194;17.150;2024-02-14T13:04:22;11.50;99.90
17632;DHT22;8934;51.194;17.150;2024-02-14T13:07:09;11.60;99.90
17632;DHT22;8934;51.194;17.150;2024-02-14T13:09:57;11.50;99.90
17632;DHT22;8934;51.194;17.150;2024-02-14T13:12:44;11.50;99.90
17632;DHT22;8934;51.194;17.150;2024-02-14T13:15:32;11.40;99.90
17632;DHT22;8934;51.194;17.150;2024-02-14T13:18:20;11.50;99.90
17632;DHT22;8934;51.194;17.150;2024-02-14T13:21:09;11.50;99.90
17632;DHT22;8934;51.194;17.150;2024-02-14T13:23:56;11.50;99.90
17632;DHT22;8934;51.194;17.150;2024-02-14T13:26:44;11.60;99.90
17632;DHT22;8934;51.194;17.150;2024-02-14T13:29:31;11.60;99.90
17632;DHT22;8934;51.194;17.150;2024-02-14T13:32:19;11.60;99.90
17632;DHT22;8934;51.194;17.150;2024-02-14T13:35:07;11.50;99.90
17632;DHT22;8934;51.194;17.150;2024-02-14T13:37:56;11.40;99.90
17632;DHT22;8934;51.194;17.150;2024-02-14T13:40:44;11.30;99.90
17632;DHT22;8934;51.194;17.150;2024-02-14T13:43:31;11.30;99.90
17632;DHT22;8934;51.194;17.150;2024-02-14T13:46:19;11.20;99.90
17632;DHT22;8934;51.194;17.150;2024-02-14T13:49:06;11.20;99.90
17632;DHT22;8934;51.194;17.150;2024-02-14T13:51:58;11.30;99.90
17632;DHT22;8934;51.194;17.150;2024-02-14T13:54:47;11.30;99.90
17632;DHT22;8934;51.194;17.150;2024-02-14T13:57:37;11.30;99.90
17632;DHT22;8934;51.194;17.150;2024-02-14T14:00:25;11.30;99.90
17632;DHT22;8934;51.194;17.150;2024-02-14T14:03:13;11.30;99.90
17632;DHT22;8934;51.194;17.150;2024-02-14T14:06:00;11.30;99.90
17632;DHT22;8934;51.194;17.150;2024-02-14T14:08:49;11.30;99.90
17632;DHT22;8934;51.194;17.150;2024-02-14T14:11:38;11.40;99.90
17632;DHT22;8934;51.194;17.150;2024-02-14T14:14:26;11.50;99.90
17632;DHT22;8934;51.194;17.150;2024-02-14T14:17:14;11.60;99.90
17632;DHT22;8934;51.194;17.150;2024-02-14T14:20:02;11.70;99.90
17632;DHT22;8934;51.194;17.150;2024-02-14T14:22:50;11.70;99.90
17632;DHT22;8934;51.194;17.150;2024-02-14T14:25:38;11.60;99.90
17632;DHT22;8934;51.194;17.150;2024-02-14T14:28:27;11.50;99.90
17632;DHT22;8934;51.194;17.150;2024-02-14T14:31:14;11.30;99.90
17632;DHT22;8934;51.194;17.150;2024-02-14T14:34:02;11.20;99.90
17632;DHT22;8934;51.194;17.150;2024-02-14T14:36:49;11.10;99.90
17632;DHT22;8934;51.194;17.150;2024-02-14T14:39:39;11.00;99.90
17632;DHT22;8934;51.194;17.150;2024-02-14T14:42:27;11.00;99.90
17632;DHT22;8934;51.194;17.150;2024-02-14T14:45:16;10.90;99.90
17632;DHT22;8934;51.194;17.150;2024-02-14T14:48:04;10.80;99.90
17632;DHT22;8934;51.194;17.150;2024-02-14T14:50:53;10.60;99.90
17632;DHT22;8934;51.194;17.150;2024-02-14T14:53:40;10.50;99.90
17632;DHT22;8934;51.194;17.150;2024-02-14T14:56:28;10.40;99.90
17632;DHT22;8934;51.194;17.150;2024-02-14T14:59:15;10.30;99.90
17632;DHT22;8934;51.194;17.150;2024-02-14T15:02:06;10.20;99.90
17632;DHT22;8934;51.194;17.150;2024-02-14T15:04:54;10.10;99.90
17632;DHT22;8934;51.194;17.150;2024-02-14T15:07:42;10.10;99.90
17632;DHT22;8934;51.194;17.150;2024-02-14T15:10:29;10.00;99.90
17632;DHT22;8934;51.194;17.150;2024-02-14T15:13:17;10.00;99.90
17632;DHT22;8934;51.194;17.150;2024-02-14T15:16:05;10.00;99.90
17632;DHT22;8934;51.194;17.150;2024-02-14T15:18:55;9.90;99.90
17632;DHT22;8934;51.194;17.150;2024-02-14T15:21:43;9.90;99.90
17632;DHT22;8934;51.194;17.150;2024-02-14T15:24:30;9.90;99.90
17632;DHT22;8934;51.194;17.150;2024-02-14T15:27:19;9.90;99.90
17632;DHT22;8934;51.194;17.150;2024-02-14T15:30:10;9.80;99.90
17632;DHT22;8934;51.194;17.150;2024-02-14T15:33:16;9.80;99.90
17632;DHT22;8934;51.194;17.150;2024-02-14T15:36:11;9.80;99.90
17632;DHT22;8934;51.194;17.150;2024-02-14T15:39:02;9.80;99.90
17632;DHT22;8934;51.194;17.150;2024-02-14T15:41:49;9.70;99.90
17632;DHT22;8934;51.194;17.150;2024-02-14T15:44:37;9.60;99.90
17632;DHT22;8934;51.194;17.150;2024-02-14T15:47:24;9.60;99.90
17632;DHT22;8934;51.194;17.150;2024-02-14T15:50:11;9.50;99.90
17632;DHT22;8934;51.194;17.150;2024-02-14T15:53:01;9.50;99.90
17632;DHT22;8934;51.194;17.150;2024-02-14T15:55:48;9.40;99.90
17632;DHT22;8934;51.194;17.150;2024-02-14T15:58:37;9.40;99.90
17632;DHT22;8934;51.194;17.150;2024-02-14T16:01:24;9.30;99.90
17632;DHT22;8934;51.194;17.150;2024-02-14T16:04:12;9.30;99.90
17632;DHT22;8934;51.194;17.150;2024-02-14T16:06:59;9.30;99.90
17632;DHT22;8934;51.194;17.150;2024-02-14T16:09:48;9.20;99.90
17632;DHT22;8934;51.194;17.150;2024-02-14T16:12:35;9.20;99.90
17632;DHT22;8934;51.194;17.150;2024-02-14T16:15:23;9.10;99.90
17632;DHT22;8934;51.194;17.150;2024-02-14T16:18:11;9.10;99.90
17632;DHT22;8934;51.194;17.150;2024-02-14T16:20:58;9.00;99.90
17632;DHT22;8934;51.194;17.150;2024-02-14T16:23:46;9.00;99.90
17632;DHT22;8934;51.194;17.150;2024-02-14T16:26:35;8.90;99.90
17632;DHT22;8934;51.194;17.150;2024-02-14T16:29:23;8.90;99.90
17632;DHT22;8934;51.194;17.150;2024-02-14T16:32:10;8.90;99.90
17632;DHT22;8934;51.194;17.150;2024-02-14T16:34:58;8.80;99.90
17632;DHT22;8934;51.194;17.150;2024-02-14T16:37:46;8.80;99.90
17632;DHT22;8934;51.194;17.150;2024-02-14T16:40:33;8.70;99.90
17632;DHT22;8934;51.194;17.150;2024-02-14T16:43:25;8.70;99.90
17632;DHT22;8934;51.194;17.150;2024-02-14T16:46:39;8.70;99.90
17632;DHT22;8934;51.194;17.150;2024-02-14T16:49:26;8.80;99.90
17632;DHT22;8934;51.194;17.150;2024-02-14T16:52:14;8.80;99.90
17632;DHT22;8934;51.194;17.150;2024-02-14T16:55:01;8.80;99.90
17632;DHT22;8934;51.194;17.150;2024-02-14T16:57:49;8.80;99.90
17632;DHT22;8934;51.194;17.150;2024-02-14T17:00:37;8.80;99.90
17632;DHT22;8934;51.194;17.150;2024-02-14T17:03:25;8.80;99.90
17632;DHT22;8934;51.194;17.150;2024-02-14T17:06:12;8.80;99.90
17632;DHT22;8934;51.194;17.150;2024-02-14T17:09:01;8.80;99.90
17632;DHT22;8934;51.194;17.150;2024-02-14T17:11:49;8.70;99.90
17632;DHT22;8934;51.194;17.150;2024-02-14T17:14:37;8.70;99.90
17632;DHT22;8934;51.194;17.150;2024-02-14T17:17:30;8.80;99.90
17632;DHT22;8934;51.194;17.150;2024-02-14T17:20:17;8.80;99.90
17632;DHT22;8934;51.194;17.150;2024-02-14T17:23:05;8.80;99.90
17632;DHT22;8934;51.194;17.150;2024-02-14T17:25:53;8.70;99.90
17632;DHT22;8934;51.194;17.150;2024-02-14T17:28:41;8.70;99.90
17632;DHT22;8934;51.194;17.150;2024-02-14T17:31:28;8.70;99.90
17632;DHT22;8934;51.194;17.150;2024-02-14T17:34:20;8.70;99.90
17632;DHT22;8934;51.194;17.150;2024-02-14T17:37:10;8.70;99.90
17632;DHT22;8934;51.194;17.150;2024-02-14T17:39:57;8.70;99.90
17632;DHT22;8934;51.194;17.150;2024-02-14T17:42:45;8.80;99.90
17632;DHT22;8934;51.194;17.150;2024-02-14T17:45:32;8.70;99.90
17632;DHT22;8934;51.194;17.150;2024-02-14T17:48:22;8.80;99.90
17632;DHT22;8934;51.194;17.150;2024-02-14T17:51:12;8.80;99.90
17632;DHT22;8934;51.194;17.150;2024-02-14T17:53:59;8.70;99.90